Time;durP1;ratioP1;P1;durP2;ratioP2;P2;SDS_P1;SDS_P2;PMS_P1;PMS_P2;Temp;Humidity;BMP_temperature;BMP_pressure;BME280_temperature;BME280_humidity;BME280_pressure;Samples;Min_cycle;Max_cycle;Signal;HPM_P1;HPM_P2
2022/12/17 13:08:06;;;;;;;6.68;4.65;;;;;;;11.21;59.36;101287.22;5028600;28;20432;-76
2022/12/17 13:10:33;;;;;;;5.32;3.92;;;;;;;11.33;58.63;101288.59;5021776;28;20378;-77
2022/12/17 13:13:21;;;;;;;4.32;3.05;;;;;;;11.59;58.35;101309.75;5034872;28;20455;-76
2022/12/17 13:15:52;;;;;;;7.78;5.55;;;;;;;11.63;58.09;101310.25;5023477;28;20386;-76
2022/12/17 13:18:47;;;;;;;9.52;6.75;;;;;;;11.62;58.43;101324.53;5034468;28;20882;-77
2022/12/17 13:21:15;;;;;;;5.88;3.92;;;;;;;11.48;58.14;101325.97;5017078;28;20398;-77
2022/12/17 13:23:41;;;;;;;6.63;4.43;;;;;;;11.39;58.33;101311.84;5023617;28;20403;-76
2022/12/17 13:26:17;;;;;;;7.97;5.28;;;;;;;11.52;57.99;101329.97;5025631;28;20477;-76
2022/12/17 13:29:11;;;;;;;2.33;2.03;;;;;;;11.09;58.02;101340.59;5033138;28;20488;-77
2022/12/17 13:32:02;;;;;;;3.97;2.35;;;;;;;10.87;58.43;101367.63;5015688;28;20961;-76
2022/12/17 13:34:46;;;;;;;1.75;1.40;;;;;;;10.47;58.74;101345.16;5027013;28;21072;-76
2022/12/17 13:37:21;;;;;;;2.80;2.10;;;;;;;10.32;59.47;101364.25;5016116;28;20855;-77
2022/12/17 13:40:13;;;;;;;6.07;3.58;;;;;;;10.46;58.60;101364.66;5034725;28;20386;-77
2022/12/17 13:42:38;;;;;;;4.72;3.03;;;;;;;10.49;59.15;101383.75;5025064;28;20399;-77
2022/12/17 13:45:04;;;;;;;2.20;1.75;;;;;;;10.24;59.42;101381.84;5032822;28;20396;-76
2022/12/17 13:47:33;;;;;;;3.45;2.33;;;;;;;10.15;59.77;101399.47;5034269;28;20723;-75
2022/12/17 13:50:01;;;;;;;2.38;2.08;;;;;;;10.35;58.80;101409.97;5034047;28;20386;-77
2022/12/17 13:52:28;;;;;;;5.75;3.65;;;;;;;10.25;58.91;101408.19;5016946;28;20784;-77
2022/12/17 13:55:09;;;;;;;4.40;3.53;;;;;;;10.33;58.31;101416.28;5034361;28;20383;-77
2022/12/17 13:57:36;;;;;;;3.90;2.60;;;;;;;10.12;58.85;101432.41;5016668;28;20407;-76
2022/12/17 14:00:03;;;;;;;4.97;3.60;;;;;;;10.35;58.47;101416.09;5033169;28;20410;-77
2022/12/17 14:02:30;;;;;;;4.22;3.13;;;;;;;9.90;59.15;101425.72;5034344;28;20389;-76
2022/12/17 14:04:57;;;;;;;3.80;3.10;;;;;;;9.94;58.58;101432.38;5033486;28;20385;-76
2022/12/17 14:07:25;;;;;;;2.90;2.30;;;;;;;9.75;59.01;101445.72;5033802;28;20763;-77
2022/12/17 14:09:51;;;;;;;8.88;5.68;;;;;;;9.70;59.61;101446.13;5034273;28;20846;-77
2022/12/17 14:12:25;;;;;;;4.00;2.97;;;;;;;9.64;59.32;101448.56;5034638;28;20406;-76
2022/12/17 14:15:09;;;;;;;3.20;2.53;;;;;;;9.48;59.08;101454.47;5015855;28;20375;-77
2022/12/17 14:17:39;;;;;;;4.50;3.50;;;;;;;9.80;58.51;101464.66;5035789;28;20410;-78
2022/12/17 14:20:13;;;;;;;5.20;4.33;;;;;;;9.81;58.87;101468.94;5035010;28;20500;-76
2022/12/17 14:22:42;;;;;;;5.93;5.30;;;;;;;9.92;58.39;101495.25;5035507;28;20371;-76
2022/12/17 14:25:20;;;;;;;6.30;4.93;;;;;;;9.69;58.18;101484.19;5034170;28;20384;-78
2022/12/17 14:27:59;;;;;;;7.30;5.10;;;;;;;9.80;58.68;101483.19;5035178;28;20830;-77
2022/12/17 14:30:35;;;;;;;7.82;6.20;;;;;;;9.81;58.26;101487.47;5033026;28;20414;-77
2022/12/17 14:33:01;;;;;;;9.20;6.18;;;;;;;9.63;59.22;101483.94;5030619;28;20386;-76
2022/12/17 14:35:29;;;;;;;12.73;9.52;;;;;;;9.74;58.41;101499.63;5033389;28;20375;-77
2022/12/17 14:37:55;;;;;;;9.80;7.18;;;;;;;9.86;58.00;101497.66;5022569;28;20370;-78
2022/12/17 14:40:23;;;;;;;7.50;5.38;;;;;;;9.48;58.54;101505.56;5033113;28;20389;-78
2022/12/17 14:42:50;;;;;;;8.27;5.88;;;;;;;9.37;58.69;101511.03;5020396;28;20383;-77
2022/12/17 14:45:15;;;;;;;5.65;4.65;;;;;;;9.19;58.89;101519.69;5033270;28;20444;-77
2022/12/17 14:47:53;;;;;;;6.03;4.23;;;;;;;9.19;59.22;101530.28;5033207;28;20422;-77
2022/12/17 14:50:18;;;;;;;8.07;6.20;;;;;;;9.42;58.94;101529.13;5033446;28;20485;-76
2022/12/17 14:52:47;;;;;;;9.03;6.83;;;;;;;9.24;59.07;101536.94;5029743;28;20473;-76
2022/12/17 14:55:38;;;;;;;11.00;8.13;;;;;;;9.19;59.35;101532.91;5031019;28;20448;-76
2022/12/17 14:58:12;;;;;;;9.52;6.63;;;;;;;9.12;59.68;101544.22;5022854;28;20419;-76
2022/12/17 15:00:43;;;;;;;11.75;8.00;;;;;;;9.23;59.22;101536.13;5016257;28;20395;-77
2022/12/17 15:03:27;;;;;;;8.50;5.38;;;;;;;9.05;59.47;101545.75;5015539;28;20431;-76
2022/12/17 15:06:04;;;;;;;11.23;7.30;;;;;;;8.88;59.98;101540.16;5014024;28;20392;-78
2022/12/17 15:08:41;;;;;;;11.45;7.90;;;;;;;8.99;59.34;101555.06;5015439;28;20411;-78
2022/12/17 15:11:07;;;;;;;11.07;7.33;;;;;;;8.90;59.22;101555.91;4997576;28;20748;-77
2022/12/17 15:13:32;;;;;;;13.60;10.27;;;;;;;8.93;59.66;101559.09;5017928;28;20383;-78
2022/12/17 15:15:58;;;;;;;10.63;7.47;;;;;;;8.63;60.39;101562.69;5012000;28;20396;-76
2022/12/17 15:18:24;;;;;;;12.27;8.68;;;;;;;8.42;60.44;101578.63;5014863;28;20391;-76
2022/12/17 15:20:49;;;;;;;10.85;7.88;;;;;;;8.27;60.42;101591.34;5017278;28;20772;-76
2022/12/17 15:23:17;;;;;;;14.40;9.70;;;;;;;8.36;60.33;101597.63;5018024;28;20784;-77
2022/12/17 15:25:44;;;;;;;12.27;9.63;;;;;;;8.20;60.36;101593.66;5017973;28;20406;-76
2022/12/17 15:28:10;;;;;;;11.35;7.57;;;;;;;8.22;59.90;101594.34;5003434;28;20430;-77
2022/12/17 15:30:37;;;;;;;12.40;8.05;;;;;;;8.22;59.97;101596.19;5014483;28;20528;-76
2022/12/17 15:33:02;;;;;;;6.95;5.65;;;;;;;7.85;60.40;101592.25;5015744;28;20394;-75
2022/12/17 15:35:28;;;;;;;13.17;8.03;;;;;;;8.09;59.70;101595.56;5018872;28;20447;-76
2022/12/17 15:37:54;;;;;;;12.00;8.60;;;;;;;8.35;59.00;101591.47;5013822;28;20395;-77
2022/12/17 15:40:19;;;;;;;11.87;8.70;;;;;;;8.33;59.25;101589.97;5031135;28;20716;-77
2022/12/17 15:45:30;;;;;;;11.57;7.38;;;;;;;8.04;59.67;101609.16;5024808;28;20552;-77
2022/12/17 15:47:55;;;;;;;10.43;7.82;;;;;;;7.96;59.54;101596.63;5025020;28;20892;-77
2022/12/17 15:50:21;;;;;;;18.97;11.67;;;;;;;8.09;59.76;101606.13;5031572;28;20474;-76
2022/12/17 15:52:46;;;;;;;11.90;8.93;;;;;;;8.07;59.13;101616.81;5031208;28;20905;-76
2022/12/17 15:55:14;;;;;;;15.93;11.32;;;;;;;8.18;59.20;101629.09;5031051;28;20394;-76
2022/12/17 15:57:39;;;;;;;17.17;12.60;;;;;;;8.23;58.79;101625.09;5024424;28;20405;-77
2022/12/17 16:00:05;;;;;;;12.63;8.50;;;;;;;8.12;58.96;101632.25;5015419;28;20895;-76
2022/12/17 16:02:31;;;;;;;13.43;10.35;;;;;;;8.07;58.81;101624.75;5016638;28;20396;-77
2022/12/17 16:04:56;;;;;;;16.63;10.77;;;;;;;8.12;58.56;101624.34;5020427;28;20406;-77
2022/12/17 16:07:21;;;;;;;14.60;9.63;;;;;;;8.19;58.46;101623.69;5017181;28;20419;-77
2022/12/17 16:09:47;;;;;;;15.00;10.40;;;;;;;8.09;59.20;101632.53;5019625;28;20864;-77
2022/12/17 16:12:12;;;;;;;18.15;13.20;;;;;;;8.21;58.53;101639.38;5019023;28;20390;-77
2022/12/17 16:14:38;;;;;;;16.13;11.97;;;;;;;8.40;58.19;101644.75;5013583;28;20424;-77
2022/12/17 16:17:03;;;;;;;15.00;10.50;;;;;;;8.29;58.00;101644.88;5013239;28;20396;-77
2022/12/17 16:19:29;;;;;;;15.40;10.55;;;;;;;7.99;58.74;101654.41;5014819;28;20860;-77
2022/12/17 16:21:55;;;;;;;18.77;11.47;;;;;;;7.79;59.48;101664.03;5014093;28;20400;-77
2022/12/17 16:24:21;;;;;;;16.70;10.95;;;;;;;7.58;60.12;101668.44;5025975;28;20382;-77
2022/12/17 16:26:46;;;;;;;18.88;12.85;;;;;;;7.64;59.66;101674.06;5026099;28;20542;-78
2022/12/17 16:29:12;;;;;;;17.63;11.47;;;;;;;7.51;59.97;101669.91;5028540;28;20414;-77
2022/12/17 16:31:37;;;;;;;20.83;13.77;;;;;;;7.38;60.13;101675.38;5029438;28;20409;-78
2022/12/17 16:34:09;;;;;;;22.20;15.07;;;;;;;7.57;60.12;101694.00;5027806;28;20414;-77
2022/12/17 16:36:35;;;;;;;17.67;11.18;;;;;;;7.49;59.52;101685.03;5031195;28;20394;-77
2022/12/17 16:39:02;;;;;;;20.00;13.00;;;;;;;7.56;58.88;101692.34;5027948;28;20843;-76
2022/12/17 16:41:27;;;;;;;17.95;11.70;;;;;;;7.54;59.28;101694.25;5011777;28;20790;-77
2022/12/17 16:43:53;;;;;;;21.50;13.93;;;;;;;7.42;59.74;101690.81;5030927;28;20390;-77
2022/12/17 16:46:33;;;;;;;23.23;15.37;;;;;;;7.53;58.82;101699.69;5031990;28;20386;-76
2022/12/17 16:49:15;;;;;;;21.90;14.55;;;;;;;7.57;58.63;101707.19;5029548;28;20406;-77
2022/12/17 16:51:42;;;;;;;21.38;14.38;;;;;;;7.57;58.71;101709.00;5012786;28;20402;-77
2022/12/17 16:54:12;;;;;;;18.95;12.95;;;;;;;7.42;58.73;101717.22;5029713;28;20394;-77
2022/12/17 16:56:37;;;;;;;24.80;16.13;;;;;;;7.30;59.25;101718.19;5029186;28;20394;-78
2022/12/17 16:59:04;;;;;;;16.45;10.52;;;;;;;6.89;60.35;101715.25;5029391;28;20478;-77
2022/12/17 17:01:30;;;;;;;20.13;12.63;;;;;;;7.10;59.99;101722.44;5028609;28;20460;-77
2022/12/17 17:03:56;;;;;;;19.60;12.60;;;;;;;6.89;60.21;101735.50;5029139;28;20390;-77
2022/12/17 17:06:22;;;;;;;17.85;11.93;;;;;;;6.95;60.09;101742.09;5028457;28;20412;-77
2022/12/17 17:08:48;;;;;;;17.90;11.75;;;;;;;6.71;60.72;101740.41;5028581;28;20457;-77
2022/12/17 17:11:20;;;;;;;22.33;13.80;;;;;;;6.87;60.02;101745.34;5020158;28;20410;-77
2022/12/17 17:13:50;;;;;;;22.27;14.27;;;;;;;7.14;58.99;101734.41;5019822;28;20815;-78
2022/12/17 17:16:18;;;;;;;23.92;14.07;;;;;;;6.98;59.54;101739.22;5018318;28;20408;-77
2022/12/17 17:18:43;;;;;;;20.42;13.68;;;;;;;6.83;59.93;101750.00;5015279;28;20395;-77
2022/12/17 17:21:22;;;;;;;19.90;12.85;;;;;;;6.93;59.48;101744.84;5017803;28;20391;-77
2022/12/17 17:23:55;;;;;;;24.40;15.13;;;;;;;6.90;59.52;101747.75;5021282;28;20476;-77
2022/12/17 17:26:20;;;;;;;25.75;18.08;;;;;;;6.88;59.34;101760.22;5015302;28;20906;-77
2022/12/17 17:28:47;;;;;;;19.13;12.30;;;;;;;6.73;59.38;101754.31;5009131;28;20410;-77
2022/12/17 17:31:14;;;;;;;23.35;14.68;;;;;;;6.72;59.84;101749.16;5016039;28;20441;-78
2022/12/17 17:33:48;;;;;;;35.08;23.90;;;;;;;6.93;58.99;101763.28;5017463;28;20495;-78
2022/12/17 17:36:16;;;;;;;20.88;11.43;;;;;;;6.85;59.15;101770.97;5019303;28;20422;-78
2022/12/17 17:38:42;;;;;;;25.42;15.38;;;;;;;6.79;59.14;101782.84;5023057;28;20370;-78
2022/12/17 17:41:11;;;;;;;30.88;19.38;;;;;;;7.09;58.48;101789.28;5019186;28;20406;-77
2022/12/17 17:43:38;;;;;;;26.95;16.02;;;;;;;6.98;58.85;101800.69;5021275;28;21174;-77
2022/12/17 17:46:11;;;;;;;21.83;14.25;;;;;;;7.07;58.16;101809.69;5024035;28;20396;-78
2022/12/17 17:48:37;;;;;;;26.40;16.25;;;;;;;6.92;58.91;101814.34;5023063;28;20428;-78
2022/12/17 17:51:18;;;;;;;36.53;21.58;;;;;;;7.14;58.44;101816.16;5023450;28;20413;-78
2022/12/17 17:53:48;;;;;;;29.95;17.85;;;;;;;7.12;58.13;101825.97;5019254;28;20392;-76
2022/12/17 17:56:17;;;;;;;19.08;12.70;;;;;;;6.45;60.24;101830.19;5004451;28;20394;-77
2022/12/17 17:58:46;;;;;;;33.15;18.65;;;;;;;6.74;59.58;101828.97;5023227;28;20402;-77
2022/12/17 18:01:15;;;;;;;37.20;20.48;;;;;;;6.80;59.54;101836.38;5022802;28;20406;-77
2022/12/17 18:03:41;;;;;;;33.88;19.08;;;;;;;6.79;59.30;101832.91;5024611;28;20463;-77
2022/12/17 18:06:08;;;;;;;28.57;16.80;;;;;;;6.94;58.90;101841.44;5023759;28;20512;-77
2022/12/17 18:08:35;;;;;;;31.58;18.33;;;;;;;6.99;58.60;101854.25;5023768;28;20410;-77
2022/12/17 18:11:04;;;;;;;31.35;19.45;;;;;;;7.06;58.44;101863.38;5023899;28;20442;-76
2022/12/17 18:16:14;;;;;;;26.50;15.55;;;;;;;6.67;59.22;101873.38;5014482;28;20446;-77
2022/12/17 18:18:40;;;;;;;21.77;13.27;;;;;;;6.43;59.69;101863.72;5014454;28;20374;-77
2022/12/17 18:21:09;;;;;;;25.08;14.57;;;;;;;6.53;60.02;101870.94;5012583;28;20490;-76
2022/12/17 18:23:34;;;;;;;26.57;16.67;;;;;;;6.60;59.81;101866.88;5010593;28;20480;-77
2022/12/17 18:26:09;;;;;;;24.88;15.43;;;;;;;6.61;59.33;101876.44;4995470;28;20481;-77
2022/12/17 18:28:35;;;;;;;24.10;16.55;;;;;;;6.78;59.00;101872.56;5015835;28;20411;-78
2022/12/17 18:31:15;;;;;;;25.42;15.43;;;;;;;6.83;58.75;101876.50;5014195;28;20470;-77
2022/12/17 18:33:43;;;;;;;29.52;18.63;;;;;;;6.72;58.96;101873.00;5020519;28;20472;-76
2022/12/17 18:36:21;;;;;;;32.42;19.70;;;;;;;6.81;58.89;101872.34;5014962;28;20396;-77
2022/12/17 18:38:47;;;;;;;36.35;20.27;;;;;;;6.97;58.52;101891.28;5016511;28;20413;-77
2022/12/17 18:44:03;;;;;;;32.08;19.35;;;;;;;7.11;57.91;101892.84;5011966;28;20426;-78
2022/12/17 18:46:30;;;;;;;30.10;19.33;;;;;;;6.95;58.49;101897.63;5013776;28;20395;-77
2022/12/17 18:48:58;;;;;;;34.88;20.88;;;;;;;7.01;58.06;101900.63;5016322;28;20418;-77
2022/12/17 18:51:23;;;;;;;34.97;20.13;;;;;;;7.08;57.83;101903.66;5014862;28;20416;-77
2022/12/17 18:53:50;;;;;;;33.33;19.80;;;;;;;7.04;57.96;101918.88;5019844;28;20444;-76
2022/12/17 18:56:15;;;;;;;39.60;24.42;;;;;;;7.04;58.02;101931.19;5015546;28;20407;-76
2022/12/17 18:58:42;;;;;;;38.40;22.95;;;;;;;7.00;57.99;101933.22;5013057;28;20380;-77
2022/12/17 19:01:18;;;;;;;42.25;25.95;;;;;;;7.18;57.56;101941.50;5018134;28;20491;-77
2022/12/17 19:03:44;;;;;;;42.10;26.65;;;;;;;7.28;57.30;101939.88;5013930;28;20426;-77
2022/12/17 19:06:09;;;;;;;46.03;29.80;;;;;;;7.23;57.18;101943.81;5009007;28;20427;-77
2022/12/17 19:08:35;;;;;;;44.95;28.30;;;;;;;6.89;58.19;101941.09;5017561;28;20435;-80
2022/12/17 19:11:05;;;;;;;37.90;23.83;;;;;;;6.76;58.59;101951.72;5010696;28;20469;-77
2022/12/17 19:13:32;;;;;;;36.50;22.75;;;;;;;6.69;58.42;101943.44;5016746;28;20779;-77
2022/12/17 19:16:08;;;;;;;28.60;18.75;;;;;;;6.67;58.55;101961.16;5015992;28;20783;-76
2022/12/17 19:18:34;;;;;;;34.38;21.33;;;;;;;6.69;58.70;101971.59;5012531;28;20397;-77
2022/12/17 19:21:00;;;;;;;29.93;18.73;;;;;;;6.71;58.65;101959.13;5008031;28;20390;-76
2022/12/17 19:23:25;;;;;;;31.70;17.20;;;;;;;6.54;59.08;101968.28;4994611;28;20449;-79
2022/12/17 19:25:51;;;;;;;27.63;17.87;;;;;;;6.26;59.77;101977.34;5011447;28;20387;-78
2022/12/17 19:28:17;;;;;;;30.30;17.17;;;;;;;6.34;59.61;101990.81;5015755;28;20434;-78
2022/12/17 19:30:43;;;;;;;31.50;19.57;;;;;;;6.44;59.48;101996.25;5015407;28;20720;-78
2022/12/17 19:33:08;;;;;;;26.03;15.97;;;;;;;6.35;59.26;102004.81;5012094;28;20481;-77
2022/12/17 19:35:35;;;;;;;30.40;18.90;;;;;;;6.34;59.58;102004.00;5007796;28;20394;-78
2022/12/17 19:38:00;;;;;;;30.83;19.25;;;;;;;6.47;59.28;102014.47;5001306;28;20425;-77
2022/12/17 19:40:26;;;;;;;30.63;19.80;;;;;;;6.54;59.08;102018.34;5014553;28;20397;-77
2022/12/17 19:42:54;;;;;;;45.20;24.07;;;;;;;6.53;58.99;102013.19;5017232;28;20391;-77
2022/12/17 19:45:20;;;;;;;29.02;17.52;;;;;;;6.32;59.43;102024.34;5012342;28;20744;-78
2022/12/17 19:47:46;;;;;;;23.35;14.70;;;;;;;5.93;60.19;102018.25;5014597;28;21095;-77
2022/12/17 19:50:12;;;;;;;20.95;13.80;;;;;;;5.84;61.28;102024.16;5013837;28;20495;-78
2022/12/17 19:52:37;;;;;;;21.67;13.23;;;;;;;5.66;61.41;102026.28;5013595;28;20825;-76
2022/12/17 19:55:03;;;;;;;19.47;12.47;;;;;;;5.78;61.15;102030.69;5008169;28;20407;-78
2022/12/17 19:57:29;;;;;;;26.30;16.20;;;;;;;6.09;60.41;102041.75;5016802;28;20835;-78
2022/12/17 19:59:54;;;;;;;26.90;17.97;;;;;;;6.33;59.65;102047.06;5018935;28;20448;-78
2022/12/17 20:02:20;;;;;;;25.23;17.02;;;;;;;6.30;59.34;102042.00;5016096;28;20398;-76
2022/12/17 20:04:46;;;;;;;26.33;15.43;;;;;;;6.16;59.88;102044.78;5015769;28;20453;-77
2022/12/17 20:07:11;;;;;;;28.23;17.37;;;;;;;6.25;59.66;102050.25;5015384;28;20388;-78
2022/12/17 20:09:36;;;;;;;24.77;15.80;;;;;;;6.44;59.45;102051.56;5015427;28;20404;-77
2022/12/17 20:12:02;;;;;;;25.75;15.48;;;;;;;6.56;59.10;102061.22;5016305;28;20416;-77
2022/12/17 20:14:29;;;;;;;26.73;17.97;;;;;;;6.52;58.75;102062.41;5013833;28;20388;-77
2022/12/17 20:16:57;;;;;;;26.53;17.00;;;;;;;6.56;59.15;102060.38;5020837;28;20417;-78
2022/12/17 20:19:25;;;;;;;20.10;11.80;;;;;;;6.47;58.49;102057.44;5020360;28;20956;-76
2022/12/17 20:21:50;;;;;;;32.07;17.57;;;;;;;6.64;58.79;102071.19;5017198;28;20483;-78
2022/12/17 20:24:16;;;;;;;31.67;19.73;;;;;;;6.76;58.30;102072.94;5017799;28;20482;-78
2022/12/17 20:26:43;;;;;;;23.27;15.88;;;;;;;6.76;58.31;102070.31;5017783;28;20891;-77
2022/12/17 20:29:09;;;;;;;25.73;15.80;;;;;;;6.72;58.13;102082.03;5007991;28;20426;-77
2022/12/17 20:31:35;;;;;;;20.85;13.43;;;;;;;6.65;58.27;102075.53;5016254;28;20419;-78
2022/12/17 20:34:02;;;;;;;25.65;15.43;;;;;;;6.58;58.43;102075.13;5014880;28;20414;-76
2022/12/17 20:36:29;;;;;;;24.23;14.93;;;;;;;6.60;58.22;102081.13;5012637;28;20451;-77
2022/12/17 20:38:54;;;;;;;28.52;18.92;;;;;;;6.78;58.34;102076.31;5014600;28;20487;-77
2022/12/17 20:41:22;;;;;;;27.33;17.27;;;;;;;6.94;57.81;102086.59;5013744;28;20467;-76
2022/12/17 20:43:49;;;;;;;32.03;21.98;;;;;;;7.04;57.45;102095.50;5008164;28;20401;-77
2022/12/17 20:46:16;;;;;;;23.45;15.25;;;;;;;6.95;57.79;102090.06;5015198;28;20398;-77
2022/12/17 20:48:42;;;;;;;22.50;14.68;;;;;;;6.97;57.86;102096.91;5016535;28;20414;-77
2022/12/17 20:51:20;;;;;;;23.92;15.32;;;;;;;7.01;57.56;102098.38;5016455;28;20386;-77
2022/12/17 20:53:49;;;;;;;28.88;19.30;;;;;;;7.01;57.97;102098.38;5018005;28;20481;-78
2022/12/17 20:56:18;;;;;;;26.85;17.00;;;;;;;7.23;57.12;102097.63;5014539;28;20398;-76
2022/12/17 20:58:44;;;;;;;26.48;18.02;;;;;;;7.33;57.11;102113.63;5011373;28;20384;-77
2022/12/17 21:01:11;;;;;;;25.90;16.03;;;;;;;7.26;57.02;102123.78;5010945;28;20892;-77
2022/12/17 21:03:37;;;;;;;42.77;27.77;;;;;;;7.07;57.10;102120.81;5016479;28;22073;-77
2022/12/17 21:06:11;;;;;;;29.58;18.13;;;;;;;6.97;57.34;102111.88;5011313;28;20384;-77
2022/12/17 21:08:39;;;;;;;45.05;23.05;;;;;;;6.80;57.47;102108.66;5013345;28;20886;-76
2022/12/17 21:11:05;;;;;;;77.22;34.00;;;;;;;6.87;57.42;102115.19;5019060;28;20392;-77
2022/12/17 21:13:31;;;;;;;61.65;26.77;;;;;;;6.92;57.47;102121.94;5016412;28;20376;-77
2022/12/17 21:16:03;;;;;;;42.75;22.77;;;;;;;7.04;57.13;102123.66;5023555;28;21071;-76
2022/12/17 21:18:30;;;;;;;32.17;17.90;;;;;;;6.93;57.29;102123.59;5017374;28;20445;-76
2022/12/17 21:21:04;;;;;;;23.27;15.35;;;;;;;6.83;57.57;102116.38;5019651;28;20407;-76
2022/12/17 21:23:31;;;;;;;21.77;12.63;;;;;;;6.57;57.78;102128.78;5016558;28;20902;-77
2022/12/17 21:25:56;;;;;;;25.63;13.15;;;;;;;6.53;57.90;102127.28;5021411;28;20411;-77
2022/12/17 21:28:22;;;;;;;26.80;14.33;;;;;;;6.56;57.80;102123.63;5015458;28;20419;-77
2022/12/17 21:30:47;;;;;;;23.88;14.95;;;;;;;6.65;57.82;102115.06;5014853;28;21026;-77
2022/12/17 21:33:13;;;;;;;15.27;10.30;;;;;;;6.61;57.54;102108.31;5015136;28;20403;-76
2022/12/17 21:35:38;;;;;;;19.93;14.80;;;;;;;6.74;57.55;102119.66;5017209;28;20402;-77
2022/12/17 21:38:04;;;;;;;17.83;12.00;;;;;;;6.56;57.77;102113.09;5016717;28;20380;-78
2022/12/17 21:40:29;;;;;;;19.27;12.93;;;;;;;6.68;57.74;102113.03;5015257;28;20388;-75
2022/12/17 21:43:00;;;;;;;19.23;11.00;;;;;;;6.54;57.95;102133.44;5014671;28;20393;-77
2022/12/17 21:45:27;;;;;;;18.65;13.18;;;;;;;6.49;58.13;102131.09;5018074;28;20905;-77
2022/12/17 21:47:52;;;;;;;18.80;12.60;;;;;;;6.52;58.11;102136.16;5010815;28;20414;-76
2022/12/17 21:50:18;;;;;;;26.47;14.93;;;;;;;6.32;58.72;102135.78;5021172;28;20417;-78
2022/12/17 21:52:43;;;;;;;22.07;12.97;;;;;;;6.28;58.84;102136.06;5013376;28;20447;-78
2022/12/17 21:55:09;;;;;;;28.23;17.03;;;;;;;6.39;58.50;102143.22;5016098;28;20390;-77
2022/12/17 21:57:34;;;;;;;32.58;18.02;;;;;;;6.34;58.21;102145.34;5018126;28;20384;-77
2022/12/17 22:00:00;;;;;;;34.00;19.63;;;;;;;6.34;58.08;102150.59;5014995;28;20454;-76
2022/12/17 22:02:25;;;;;;;57.37;27.70;;;;;;;6.38;57.85;102157.38;5015151;28;20414;-77
2022/12/17 22:04:51;;;;;;;38.28;20.98;;;;;;;6.50;57.45;102159.16;5017596;28;21010;-78
2022/12/17 22:07:16;;;;;;;42.53;23.00;;;;;;;6.62;57.65;102163.53;5017188;28;20380;-78
2022/12/17 22:09:42;;;;;;;30.40;17.57;;;;;;;6.36;57.98;102170.63;5015859;28;20384;-78
2022/12/17 22:14:51;;;;;;;29.40;17.60;;;;;;;6.49;57.41;102168.00;5016997;28;20386;-77
2022/12/17 22:17:17;;;;;;;28.83;18.40;;;;;;;6.41;57.77;102173.81;5012884;28;20380;-77
2022/12/17 22:19:42;;;;;;;30.60;18.93;;;;;;;6.41;57.42;102168.53;5014870;28;20383;-76
2022/12/17 22:22:08;;;;;;;29.27;17.00;;;;;;;6.26;57.30;102162.50;5014135;28;20380;-77
2022/12/17 22:24:33;;;;;;;32.30;19.48;;;;;;;6.35;57.73;102171.56;5009452;28;20433;-76
2022/12/17 22:26:59;;;;;;;26.97;17.87;;;;;;;6.41;57.04;102171.16;5016044;28;20388;-77
2022/12/17 22:34:57;;;;;;;29.02;18.73;;;;;;;6.26;57.56;102165.16;5012390;28;20376;-77
2022/12/17 22:37:23;;;;;;;30.00;17.80;;;;;;;6.39;57.06;102167.81;5013118;28;20389;-77
2022/12/17 22:39:49;;;;;;;29.40;18.20;;;;;;;6.46;57.16;102163.78;5011778;28;20384;-77
2022/12/17 22:44:58;;;;;;;50.88;26.08;;;;;;;6.65;56.73;102168.59;5018002;28;20394;-77
2022/12/17 22:47:24;;;;;;;49.27;24.33;;;;;;;6.53;56.60;102180.00;5011640;28;20384;-77
2022/12/17 22:49:49;;;;;;;37.63;20.80;;;;;;;6.55;56.73;102185.97;5014401;28;20399;-76
2022/12/17 22:52:15;;;;;;;35.15;18.85;;;;;;;6.46;56.43;102187.50;5016452;28;20379;-76
2022/12/17 22:54:41;;;;;;;41.93;21.83;;;;;;;6.46;56.53;102198.03;5015431;28;20840;-76
2022/12/17 22:57:09;;;;;;;34.97;18.83;;;;;;;6.36;56.86;102196.16;5015890;28;20400;-77
2022/12/17 22:59:34;;;;;;;34.53;19.38;;;;;;;6.36;57.31;102186.44;5013564;28;20738;-77
2022/12/17 23:02:00;;;;;;;29.90;17.95;;;;;;;6.50;56.86;102199.50;5012423;28;20391;-77
2022/12/17 23:04:25;;;;;;;26.83;17.10;;;;;;;6.49;56.73;102200.44;5011347;28;20383;-76
2022/12/17 23:06:51;;;;;;;23.87;17.10;;;;;;;6.15;57.67;102209.81;5014321;28;20376;-76
2022/12/17 23:09:18;;;;;;;24.95;15.25;;;;;;;6.03;57.70;102200.97;5013449;28;20404;-76
2022/12/17 23:11:44;;;;;;;30.77;18.77;;;;;;;5.94;58.12;102207.66;5014982;28;20386;-77
2022/12/17 23:14:09;;;;;;;28.63;18.60;;;;;;;5.99;57.39;102204.72;5015885;28;20451;-78
2022/12/17 23:16:37;;;;;;;26.80;15.87;;;;;;;5.74;57.48;102216.88;5012336;28;20393;-76
2022/12/17 23:19:03;;;;;;;27.50;16.48;;;;;;;5.70;57.44;102210.13;5010856;28;20395;-77
2022/12/17 23:21:29;;;;;;;30.02;17.45;;;;;;;5.76;57.56;102214.13;5015785;28;20379;-77
2022/12/17 23:23:56;;;;;;;25.48;15.93;;;;;;;5.84;57.24;102224.16;5014093;28;20455;-77
2022/12/17 23:26:27;;;;;;;43.35;23.05;;;;;;;5.95;56.74;102221.66;5015863;28;20390;-77
2022/12/17 23:28:58;;;;;;;38.97;23.37;;;;;;;6.02;56.69;102230.84;5011804;28;20404;-76
2022/12/17 23:31:29;;;;;;;22.60;14.40;;;;;;;5.75;56.53;102229.09;5011620;28;20415;-76
2022/12/17 23:33:55;;;;;;;26.67;16.33;;;;;;;5.77;57.10;102231.63;5013474;28;20382;-77
2022/12/17 23:36:23;;;;;;;26.73;16.73;;;;;;;5.97;56.98;102227.69;5013668;28;20414;-76
2022/12/17 23:38:49;;;;;;;25.90;15.90;;;;;;;6.04;56.49;102228.13;5008554;28;20435;-77
2022/12/17 23:41:22;;;;;;;27.52;17.08;;;;;;;6.19;56.23;102229.72;5013930;28;20388;-76
2022/12/17 23:43:48;;;;;;;24.48;15.90;;;;;;;6.33;56.00;102228.78;5015868;28;20380;-77
2022/12/17 23:46:14;;;;;;;24.27;15.98;;;;;;;6.09;56.33;102226.03;5015147;28;20456;-77
2022/12/17 23:48:42;;;;;;;27.57;16.73;;;;;;;6.20;56.23;102243.75;5014495;28;20435;-77
2022/12/17 23:51:08;;;;;;;26.88;16.50;;;;;;;6.14;55.90;102234.47;5012764;28;20872;-77
2022/12/17 23:53:35;;;;;;;25.83;15.32;;;;;;;6.16;55.93;102250.13;5014240;28;20479;-77
2022/12/17 23:56:08;;;;;;;26.38;16.15;;;;;;;6.12;55.70;102247.72;5013119;28;20927;-77
2022/12/17 23:58:35;;;;;;;28.85;17.02;;;;;;;6.09;56.31;102241.84;5012152;28;20469;-77
